createdAt,value
2022-08-24T00:00:49.749Z,98123.41
2022-08-24T00:05:51.715Z,98127.97
2022-08-24T00:10:53.897Z,98122.50
2022-08-24T00:15:56.234Z,98118.66
2022-08-24T00:20:58.054Z,98116.97
2022-08-24T00:25:59.976Z,98124.75
2022-08-24T00:31:02.563Z,98121.66
2022-08-24T00:36:05.182Z,98115.63
2022-08-24T00:41:07.928Z,98115.22
2022-08-24T00:46:21.657Z,98110.03
2022-08-24T00:51:33.686Z,98122.66
2022-08-24T00:56:43.937Z,98125.59
2022-08-24T01:01:47.623Z,98124.09
2022-08-24T01:06:50.087Z,98133.13
2022-08-24T01:11:52.518Z,98120.44
2022-08-24T01:17:12.928Z,98125.56
2022-08-24T01:22:21.045Z,98124.22
2022-08-24T01:27:27.728Z,98137.19
2022-08-24T01:32:30.103Z,98129.84
2022-08-24T01:37:33.155Z,98138.00
2022-08-24T01:42:35.489Z,98137.19
2022-08-24T01:47:37.318Z,98136.94
2022-08-24T01:53:03.897Z,98127.66
2022-08-24T01:58:04.052Z,98130.41
2022-08-24T02:03:06.473Z,98133.13
2022-08-24T02:08:08.864Z,98143.91
2022-08-24T02:13:10.828Z,98142.56
2022-08-24T02:18:15.396Z,98137.72
2022-08-24T02:23:18.809Z,98135.03
2022-08-24T02:28:20.842Z,98139.00
2022-08-24T02:33:23.760Z,98138.38
2022-08-24T02:38:26.053Z,98130.28
2022-08-24T02:43:28.311Z,98142.25
2022-08-24T02:48:30.744Z,98131.81
2022-08-24T02:53:33.048Z,98135.59
2022-08-24T02:58:35.054Z,98143.16
2022-08-24T03:03:37.004Z,98142.09
2022-08-24T03:08:39.637Z,98137.06
2022-08-24T03:13:42.570Z,98139.75
2022-08-24T03:18:44.773Z,98142.09
2022-08-24T03:23:48.703Z,98146.03
2022-08-24T03:28:51.199Z,98146.59
2022-08-24T03:33:54.339Z,98146.97
2022-08-24T03:38:56.743Z,98149.56
2022-08-24T03:43:58.866Z,98153.88
2022-08-24T03:49:01.022Z,98155.75
2022-08-24T03:54:05.455Z,98160.53
2022-08-24T03:59:09.879Z,98162.31
2022-08-24T04:04:17.619Z,98160.97
2022-08-24T04:09:19.642Z,98159.28
2022-08-24T04:14:26.803Z,98153.34
2022-08-24T04:19:34.923Z,98164.50
2022-08-24T04:24:37.657Z,98168.63
2022-08-24T04:29:39.561Z,98171.41
2022-08-24T04:34:45.525Z,98174.00
2022-08-24T04:39:47.524Z,98184.72
2022-08-24T04:44:50.545Z,98184.47
2022-08-24T04:49:55.995Z,98192.75
2022-08-24T04:54:57.933Z,98195.97
2022-08-24T05:00:03.243Z,98203.47
2022-08-24T05:05:06.711Z,98201.25
2022-08-24T05:10:11.238Z,98201.69
2022-08-24T05:15:13.286Z,98201.47
2022-08-24T05:20:19.189Z,98204.09
2022-08-24T05:25:21.935Z,98202.56
2022-08-24T05:30:24.380Z,98213.63
2022-08-24T05:35:26.553Z,98204.50
2022-08-24T05:40:30.522Z,98215.09
2022-08-24T05:45:35.707Z,98220.50
2022-08-24T05:50:37.613Z,98222.56
2022-08-24T05:55:40.985Z,98224.75
2022-08-24T06:00:46.029Z,98231.16
2022-08-24T06:05:48.839Z,98230.56
2022-08-24T06:10:50.897Z,98236.22
2022-08-24T06:16:20.866Z,98233.94
2022-08-24T06:21:28.207Z,98230.09
2022-08-24T06:26:51.699Z,98229.53
2022-08-24T06:31:56.153Z,98228.88
2022-08-24T06:36:59.701Z,98230.38
2022-08-24T06:42:01.711Z,98234.09
2022-08-24T06:47:05.712Z,98243.91
2022-08-24T06:52:07.817Z,98248.84
2022-08-24T06:57:09.781Z,98253.66
2022-08-24T07:02:15.860Z,98258.63
2022-08-24T07:07:18.812Z,98251.78
2022-08-24T07:12:21.066Z,98273.41
2022-08-24T07:17:23.245Z,98270.75
2022-08-24T07:22:27.959Z,98272.75
2022-08-24T07:27:30.086Z,98278.94
2022-08-24T07:32:32.539Z,98280.00
2022-08-24T07:37:41.506Z,98280.94
2022-08-24T07:42:49.981Z,98285.47
2022-08-24T07:47:55.359Z,98284.31
2022-08-24T07:53:15.088Z,98289.94
2022-08-24T07:58:20.313Z,98306.53
2022-08-24T08:03:25.055Z,98301.44
2022-08-24T08:08:28.029Z,98302.66
2022-08-24T08:13:31.660Z,98305.34
2022-08-24T08:18:34.612Z,98305.22
2022-08-24T08:23:59.646Z,98300.81
2022-08-24T08:29:08.265Z,98295.47
2022-08-24T08:34:13.220Z,98302.03
2022-08-24T08:39:16.591Z,98299.22
2022-08-24T08:44:35.559Z,98306.31
2022-08-24T08:50:02.977Z,98306.19
2022-08-24T08:55:32.155Z,98304.63
2022-08-24T09:00:49.006Z,98299.47
2022-08-24T09:05:58.779Z,98296.84
2022-08-24T09:11:23.863Z,98299.41
2022-08-24T09:16:36.206Z,98294.38
2022-08-24T09:21:58.987Z,98297.94
2022-08-24T09:27:25.525Z,98283.75
2022-08-24T09:32:46.678Z,98291.06
2022-08-24T09:38:01.038Z,98293.16
2022-08-24T09:43:21.174Z,98291.31
2022-08-24T09:48:24.225Z,98282.38
2022-08-24T09:53:38.172Z,98285.31
2022-08-24T09:59:01.813Z,98269.38
2022-08-24T10:04:25.180Z,98274.00
2022-08-24T10:09:52.025Z,98274.44
2022-08-24T10:15:04.249Z,98276.50
2022-08-24T10:20:29.484Z,98267.69
2022-08-24T10:25:55.775Z,98265.47
2022-08-24T10:31:10.948Z,98256.06
2022-08-24T10:36:36.518Z,98265.00
2022-08-24T10:42:02.910Z,98254.75
2022-08-24T10:47:28.575Z,98255.19
2022-08-24T10:52:42.716Z,98248.81
2022-08-24T10:57:54.781Z,98251.81
2022-08-24T11:03:10.449Z,98256.06
2022-08-24T11:08:25.633Z,98257.00
2022-08-24T11:13:27.514Z,98256.75
2022-08-24T11:19:10.033Z,98256.88
2022-08-24T11:24:26.866Z,98257.56
2022-08-24T11:29:51.910Z,98255.94
2022-08-24T11:34:53.926Z,98259.56
2022-08-24T11:39:55.870Z,98254.19
2022-08-24T11:45:14.348Z,98252.53
2022-08-24T11:50:57.717Z,98244.25
2022-08-24T11:56:31.580Z,98250.53
2022-08-24T12:02:04.245Z,98248.19
2022-08-24T12:07:09.271Z,98258.84
2022-08-24T12:12:32.431Z,98254.09
2022-08-24T12:17:55.882Z,98252.19
2022-08-24T12:23:02.682Z,98247.25
2022-08-24T12:28:05.707Z,98244.69
2022-08-24T12:33:15.742Z,98244.72
2022-08-24T12:38:25.326Z,98244.47
2022-08-24T12:43:40.199Z,98239.66
2022-08-24T12:49:04.378Z,98245.25
2022-08-24T12:54:20.669Z,98246.13
2022-08-24T12:59:43.383Z,98256.13
2022-08-24T13:04:51.288Z,98240.59
2022-08-24T13:09:53.399Z,98251.19
2022-08-24T13:15:21.277Z,98249.03
2022-08-24T13:20:28.870Z,98234.41
2022-08-24T13:25:52.069Z,98249.53
2022-08-24T13:30:54.164Z,98237.81
2022-08-24T13:36:03.926Z,98241.78
2022-08-24T13:41:08.881Z,98244.75
2022-08-24T13:46:16.769Z,98235.94
2022-08-24T13:51:20.714Z,98240.69
2022-08-24T13:56:47.746Z,98236.16
2022-08-24T14:02:25.908Z,98235.06
2022-08-24T14:07:32.953Z,98234.25
2022-08-24T14:12:41.846Z,98231.56
2022-08-24T14:18:09.954Z,98231.53
2022-08-24T14:23:17.837Z,98227.69
2022-08-24T14:28:37.202Z,98228.13
2022-08-24T14:33:48.642Z,98223.78
2022-08-24T14:38:58.621Z,98221.97
2022-08-24T14:44:14.244Z,98220.28
2022-08-24T14:49:43.345Z,98225.22
2022-08-24T14:55:01.951Z,98221.47
2022-08-24T15:00:10.995Z,98208.63
2022-08-24T15:05:41.665Z,98202.91
2022-08-24T15:10:43.516Z,98204.16
2022-08-24T15:16:06.328Z,98198.69
2022-08-24T15:21:23.703Z,98193.50
2022-08-24T15:27:04.520Z,98198.81
2022-08-24T15:32:10.617Z,98192.59
2022-08-24T15:37:46.255Z,98190.31
2022-08-24T15:42:51.149Z,98197.50
2022-08-24T15:47:54.715Z,98186.31
2022-08-24T15:53:01.147Z,98176.97
2022-08-24T15:58:41.292Z,98184.97
2022-08-24T16:03:46.513Z,98189.09
2022-08-24T16:09:02.503Z,98180.19
2022-08-24T16:14:11.410Z,98179.78
2022-08-24T16:19:26.974Z,98176.41
2022-08-24T16:24:33.360Z,98177.50
2022-08-24T16:29:38.162Z,98181.75
2022-08-24T16:34:43.001Z,98171.78
2022-08-24T16:39:47.645Z,98178.03
2022-08-24T16:44:51.090Z,98185.16
2022-08-24T16:49:52.989Z,98183.56
2022-08-24T16:54:54.878Z,98175.81
2022-08-24T16:59:57.056Z,98177.97
2022-08-24T17:04:59.288Z,98174.22
2022-08-24T17:10:04.084Z,98172.50
2022-08-24T17:15:07.656Z,98168.97
2022-08-24T17:20:11.135Z,98175.69
2022-08-24T17:25:12.972Z,98181.50
2022-08-24T17:30:18.663Z,98186.59
2022-08-24T17:35:21.669Z,98184.63
2022-08-24T17:40:25.457Z,98192.13
2022-08-24T17:45:27.513Z,98187.66
2022-08-24T17:50:29.396Z,98193.28
2022-08-24T17:55:31.348Z,98184.06
2022-08-24T18:00:33.318Z,98195.41
2022-08-24T18:05:35.891Z,98192.38
2022-08-24T18:10:37.737Z,98201.31
2022-08-24T18:15:39.913Z,98205.75
2022-08-24T18:20:42.037Z,98211.38
2022-08-24T18:25:50.203Z,98208.78
2022-08-24T18:30:52.348Z,98220.13
2022-08-24T18:35:54.244Z,98218.03
2022-08-24T18:41:01.889Z,98228.47
2022-08-24T18:46:04.875Z,98226.34
2022-08-24T18:51:06.975Z,98232.47
2022-08-24T18:56:12.487Z,98229.13
2022-08-24T19:01:14.854Z,98236.91
2022-08-24T19:06:19.063Z,98244.69
2022-08-24T19:11:23.683Z,98235.25
2022-08-24T19:16:25.534Z,98240.94
2022-08-24T19:21:30.408Z,98247.84
2022-08-24T19:26:32.665Z,98233.53
2022-08-24T19:31:34.854Z,98228.91
2022-08-24T19:36:36.986Z,98236.63
2022-08-24T19:41:43.268Z,98225.97
2022-08-24T19:46:48.947Z,98233.88
2022-08-24T19:51:51.423Z,98243.59
2022-08-24T19:56:54.314Z,98241.59
2022-08-24T20:01:56.254Z,98238.19
2022-08-24T20:06:58.182Z,98237.38
2022-08-24T20:12:00.027Z,98236.97
2022-08-24T20:17:02.142Z,98230.31
2022-08-24T20:22:05.133Z,98239.81
2022-08-24T20:27:25.691Z,98241.84
2022-08-24T20:32:29.457Z,98244.50
2022-08-24T20:37:33.419Z,98240.25
2022-08-24T20:42:35.300Z,98244.06
2022-08-24T20:47:52.034Z,98244.69
2022-08-24T20:52:54.116Z,98249.72
2022-08-24T20:58:03.586Z,98249.91
2022-08-24T21:03:05.503Z,98243.06
2022-08-24T21:08:08.451Z,98238.22
2022-08-24T21:13:11.080Z,98244.84
2022-08-24T21:18:12.898Z,98245.03
2022-08-24T21:23:14.775Z,98237.34
2022-08-24T21:28:17.168Z,98240.56
2022-08-24T21:33:37.365Z,98247.19
2022-08-24T21:38:39.240Z,98250.44
2022-08-24T21:43:47.108Z,98256.44
2022-08-24T21:48:49.166Z,98253.00
2022-08-24T21:53:51.133Z,98257.03
2022-08-24T21:59:01.446Z,98248.56
2022-08-24T22:04:03.499Z,98247.34
2022-08-24T22:09:06.449Z,98243.91
2022-08-24T22:14:08.380Z,98245.09
2022-08-24T22:19:11.330Z,98242.63
2022-08-24T22:24:13.429Z,98240.78
2022-08-24T22:29:15.345Z,98228.44
2022-08-24T22:34:20.778Z,98222.38
2022-08-24T22:39:23.075Z,98222.56
2022-08-24T22:44:25.742Z,98224.97
2022-08-24T22:49:35.583Z,98215.44
2022-08-24T22:54:39.502Z,98211.41
2022-08-24T22:59:43.007Z,98210.56
2022-08-24T23:04:48.182Z,98205.31
2022-08-24T23:09:50.312Z,98211.09
2022-08-24T23:14:52.728Z,98208.03
2022-08-24T23:20:00.903Z,98199.38
2022-08-24T23:25:04.621Z,98202.56
2022-08-24T23:30:13.555Z,98205.16
2022-08-24T23:35:15.431Z,98196.88
2022-08-24T23:40:19.014Z,98194.03
2022-08-24T23:45:28.037Z,98195.81
2022-08-24T23:50:30.629Z,98193.56
2022-08-24T23:55:32.413Z,98191.94
